createdAt,value
2023-04-15T00:01:08.107Z,5.57
2023-04-15T00:03:37.551Z,6.13
2023-04-15T00:06:05.634Z,5.18
2023-04-15T00:08:33.634Z,5.15
2023-04-15T00:11:05.665Z,6.43
2023-04-15T00:13:33.947Z,6.03
2023-04-15T00:16:02.145Z,5.53
2023-04-15T00:18:31.564Z,6.68
2023-04-15T00:21:00.813Z,6.15
2023-04-15T00:23:29.420Z,6.55
2023-04-15T00:25:57.355Z,6.20
2023-04-15T00:28:25.129Z,6.53
2023-04-15T00:30:52.931Z,6.13
2023-04-15T00:33:20.787Z,7.05
2023-04-15T00:35:48.562Z,6.72
2023-04-15T00:38:17.753Z,6.10
2023-04-15T00:40:45.815Z,6.40
2023-04-15T00:43:13.615Z,5.85
2023-04-15T00:45:41.473Z,7.38
2023-04-15T00:48:12.472Z,5.95
2023-04-15T00:50:40.251Z,6.90
2023-04-15T00:53:07.988Z,6.75
2023-04-15T00:55:37.272Z,6.85
2023-04-15T00:58:05.041Z,6.82
2023-04-15T01:00:32.961Z,5.43
2023-04-15T01:03:00.957Z,6.43
2023-04-15T01:05:29.465Z,5.35
2023-04-15T01:07:57.943Z,5.90
2023-04-15T01:10:25.821Z,6.15
2023-04-15T01:12:55.013Z,5.57
2023-04-15T01:15:22.786Z,4.75
2023-04-15T01:17:51.550Z,4.78
2023-04-15T01:20:20.265Z,6.88
2023-04-15T01:22:48.148Z,6.43
2023-04-15T01:25:19.757Z,5.80
2023-04-15T01:27:49.240Z,4.90
2023-04-15T01:30:17.401Z,5.07
2023-04-15T01:32:45.174Z,5.70
2023-04-15T01:35:13.168Z,5.22
2023-04-15T01:37:41.026Z,5.25
2023-04-15T01:40:09.813Z,5.30
2023-04-15T01:42:38.504Z,6.28
2023-04-15T01:45:09.072Z,5.65
2023-04-15T01:50:08.459Z,5.03
2023-04-15T01:52:36.288Z,5.60
2023-04-15T01:55:04.305Z,5.07
2023-04-15T01:57:32.540Z,4.90
2023-04-15T02:00:00.272Z,4.88
2023-04-15T02:02:29.738Z,4.22
2023-04-15T02:04:58.014Z,5.65
2023-04-15T02:07:25.879Z,6.32
2023-04-15T02:09:54.095Z,5.63
2023-04-15T02:12:22.051Z,5.63
2023-04-15T02:14:50.549Z,6.20
2023-04-15T02:17:18.314Z,4.60
2023-04-15T02:19:48.160Z,5.35
2023-04-15T02:22:18.620Z,5.55
2023-04-15T02:24:47.697Z,5.93
2023-04-15T02:27:18.153Z,5.50
2023-04-15T02:29:46.582Z,5.38
2023-04-15T02:32:14.634Z,6.10
2023-04-15T02:34:42.888Z,6.20
2023-04-15T02:37:13.632Z,6.35
2023-04-15T02:39:41.525Z,6.68
2023-04-15T02:42:09.344Z,6.13
2023-04-15T02:44:37.736Z,5.60
2023-04-15T02:47:07.420Z,6.90
2023-04-15T02:49:35.218Z,5.28
2023-04-15T02:52:03.017Z,7.30
2023-04-15T02:54:33.917Z,6.00
2023-04-15T02:57:02.183Z,6.57
2023-04-15T02:59:30.171Z,6.85
2023-04-15T03:02:00.854Z,6.95
2023-04-15T03:04:30.156Z,6.82
2023-04-15T03:06:57.964Z,5.78
2023-04-15T03:09:26.857Z,6.63
2023-04-15T03:11:57.424Z,8.07
2023-04-15T03:14:25.950Z,7.65
2023-04-15T03:16:53.958Z,7.50
2023-04-15T03:19:21.706Z,7.68
2023-04-15T03:21:49.470Z,8.13
2023-04-15T03:24:17.697Z,6.22
2023-04-15T03:26:46.404Z,6.45
2023-04-15T03:29:18.716Z,7.47
2023-04-15T03:31:47.341Z,6.68
2023-04-15T03:34:15.119Z,6.78
2023-04-15T03:36:42.895Z,7.30
2023-04-15T03:39:10.681Z,6.80
2023-04-15T03:41:38.420Z,6.50
2023-04-15T03:44:06.694Z,6.70
2023-04-15T03:46:35.890Z,6.90
2023-04-15T03:49:04.018Z,7.10
2023-04-15T03:51:32.455Z,8.50
2023-04-15T03:54:00.263Z,8.20
2023-04-15T03:56:27.979Z,6.95
2023-04-15T03:58:55.720Z,7.25
2023-04-15T04:01:23.942Z,8.20
2023-04-15T04:03:53.209Z,7.97
2023-04-15T04:06:21.255Z,8.80
2023-04-15T04:08:49.029Z,8.18
2023-04-15T04:11:17.220Z,6.88
2023-04-15T04:13:44.958Z,8.60
2023-04-15T04:16:12.821Z,8.20
2023-04-15T04:18:40.609Z,8.05
2023-04-15T04:21:09.800Z,8.98
2023-04-15T04:23:37.693Z,8.95
2023-04-15T04:26:05.506Z,9.18
2023-04-15T04:28:33.347Z,8.35
2023-04-15T04:31:01.227Z,10.13
2023-04-15T04:33:29.100Z,10.07
2023-04-15T04:35:56.819Z,10.35
2023-04-15T04:38:25.952Z,8.57
2023-04-15T04:40:53.798Z,9.20
2023-04-15T04:43:21.854Z,9.80
2023-04-15T04:45:49.624Z,8.88
2023-04-15T04:48:17.618Z,8.65
2023-04-15T04:50:46.974Z,9.93
2023-04-15T04:53:14.770Z,9.95
2023-04-15T04:55:43.833Z,9.73
2023-04-15T04:58:11.641Z,10.57
2023-04-15T05:00:39.397Z,8.55
2023-04-15T05:03:07.380Z,8.40
2023-04-15T05:05:35.448Z,9.77
2023-04-15T05:08:03.267Z,9.02
2023-04-15T05:10:31.065Z,9.30
2023-04-15T05:13:00.318Z,8.80
2023-04-15T05:15:28.141Z,9.32
2023-04-15T05:17:55.952Z,8.45
2023-04-15T05:20:23.776Z,8.45
2023-04-15T05:22:51.558Z,8.98
2023-04-15T05:25:19.463Z,8.85
2023-04-15T05:27:47.278Z,9.55
2023-04-15T05:30:16.720Z,7.72
2023-04-15T05:32:44.510Z,8.23
2023-04-15T05:35:12.406Z,8.38
2023-04-15T05:37:40.161Z,9.90
2023-04-15T05:40:10.466Z,9.02
2023-04-15T05:42:38.349Z,8.38
2023-04-15T05:45:09.086Z,8.52
2023-04-15T05:47:38.369Z,8.57
2023-04-15T05:50:07.314Z,8.65
2023-04-15T05:52:35.135Z,9.05
2023-04-15T05:55:02.871Z,9.38
2023-04-15T05:57:30.627Z,8.48
2023-04-15T05:59:58.423Z,8.30
2023-04-15T06:02:26.593Z,9.18
2023-04-15T06:04:55.876Z,8.82
2023-04-15T06:07:23.684Z,8.25
2023-04-15T06:09:51.437Z,8.23
2023-04-15T06:12:19.172Z,7.07
2023-04-15T06:14:46.897Z,8.85
2023-04-15T06:17:14.988Z,8.15
2023-04-15T06:19:42.785Z,8.30
2023-04-15T06:22:11.839Z,7.10
2023-04-15T06:24:39.676Z,7.63
2023-04-15T06:27:07.490Z,6.95
2023-04-15T06:29:35.571Z,7.57
2023-04-15T06:32:03.350Z,8.10
2023-04-15T06:34:31.156Z,7.15
2023-04-15T06:36:58.928Z,7.78
2023-04-15T06:39:28.042Z,8.10
2023-04-15T06:41:56.409Z,7.93
2023-04-15T06:44:24.143Z,6.57
2023-04-15T06:46:51.872Z,7.63
2023-04-15T06:49:19.577Z,6.50
2023-04-15T06:51:47.348Z,6.63
2023-04-15T06:54:15.070Z,7.35
2023-04-15T06:56:44.250Z,7.00
2023-04-15T06:59:12.845Z,8.18
2023-04-15T07:01:41.676Z,9.50
2023-04-15T07:04:09.678Z,8.48
2023-04-15T07:06:37.536Z,8.57
2023-04-15T07:09:05.936Z,6.55
2023-04-15T07:11:33.909Z,6.10
2023-04-15T07:14:03.235Z,5.60
2023-04-15T07:16:31.395Z,5.53
2023-04-15T07:18:59.181Z,5.80
2023-04-15T07:21:27.653Z,4.93
2023-04-15T07:23:55.481Z,6.10
2023-04-15T07:26:23.359Z,5.85
2023-04-15T07:28:51.481Z,5.72
2023-04-15T07:31:20.825Z,5.80
2023-04-15T07:33:48.629Z,6.25
2023-04-15T07:36:16.480Z,5.72
2023-04-15T07:38:44.215Z,6.03
2023-04-15T07:41:12.489Z,13.75
2023-04-15T07:43:40.211Z,8.82
2023-04-15T07:46:08.324Z,7.28
2023-04-15T07:48:37.604Z,6.40
2023-04-15T07:51:06.020Z,6.22
2023-04-15T07:53:34.003Z,7.03
2023-04-15T07:56:01.799Z,6.60
2023-04-15T07:58:29.623Z,6.03
2023-04-15T08:00:57.667Z,5.82
2023-04-15T08:03:26.858Z,5.80
2023-04-15T08:05:56.074Z,5.38
2023-04-15T08:08:23.906Z,6.40
2023-04-15T08:10:52.825Z,5.05
2023-04-15T08:13:21.037Z,4.60
2023-04-15T08:16:14.466Z,5.45
2023-04-15T08:18:42.314Z,4.63
2023-04-15T08:21:11.491Z,4.70
2023-04-15T08:23:39.619Z,5.60
2023-04-15T08:26:08.638Z,4.78
2023-04-15T08:28:36.500Z,4.68
2023-04-15T08:31:04.393Z,5.38
2023-04-15T08:33:32.244Z,4.68
2023-04-15T08:36:00.008Z,4.60
2023-04-15T08:38:29.192Z,4.38
2023-04-15T08:40:59.372Z,4.63
2023-04-15T08:43:30.649Z,4.70
2023-04-15T08:46:00.201Z,4.70
2023-04-15T08:48:30.286Z,5.20
2023-04-15T08:50:59.049Z,4.85
2023-04-15T08:53:30.304Z,4.13
2023-04-15T08:56:01.395Z,4.97
2023-04-15T08:58:29.979Z,4.45
2023-04-15T09:00:58.425Z,4.28
2023-04-15T09:03:26.804Z,3.85
2023-04-15T09:05:55.317Z,3.72
2023-04-15T09:08:23.103Z,3.35
2023-04-15T09:10:52.576Z,2.90
2023-04-15T09:13:20.360Z,3.58
2023-04-15T09:15:48.449Z,3.05
2023-04-15T09:18:28.556Z,2.55
2023-04-15T09:20:56.603Z,2.40
2023-04-15T09:23:24.426Z,2.47
2023-04-15T09:25:53.698Z,2.40
2023-04-15T09:28:27.037Z,2.40
2023-04-15T09:30:57.734Z,2.40
2023-04-15T09:33:27.048Z,2.10
2023-04-15T09:36:00.068Z,2.60
2023-04-15T09:38:28.413Z,2.35
2023-04-15T09:40:58.015Z,2.30
2023-04-15T09:43:39.050Z,2.80
2023-04-15T09:46:07.039Z,2.30
2023-04-15T09:48:34.866Z,2.53
2023-04-15T09:51:02.990Z,2.65
2023-04-15T09:53:31.909Z,2.47
2023-04-15T09:56:02.337Z,2.58
2023-04-15T09:58:31.800Z,2.72
2023-04-15T10:01:01.725Z,3.20
2023-04-15T10:03:31.894Z,2.78
2023-04-15T10:06:02.028Z,3.10
2023-04-15T10:08:31.556Z,2.78
2023-04-15T10:11:01.305Z,2.60
2023-04-15T10:13:33.263Z,2.78
2023-04-15T10:16:06.415Z,2.65
2023-04-15T10:18:38.972Z,2.17
2023-04-15T10:21:07.835Z,2.20
2023-04-15T10:23:35.612Z,2.63
2023-04-15T10:26:06.116Z,2.00
2023-04-15T10:28:33.897Z,3.28
2023-04-15T10:31:02.564Z,2.70
2023-04-15T10:33:31.125Z,2.20
2023-04-15T10:35:59.405Z,2.47
2023-04-15T10:38:35.262Z,2.33
2023-04-15T10:41:17.833Z,2.70
2023-04-15T10:43:49.563Z,2.20
2023-04-15T10:46:20.843Z,2.30
2023-04-15T10:48:50.393Z,2.10
2023-04-15T10:51:27.321Z,2.20
2023-04-15T10:53:57.970Z,2.10
2023-04-15T10:56:29.118Z,2.60
2023-04-15T10:58:56.908Z,2.08
2023-04-15T11:01:51.457Z,2.20
2023-04-15T11:04:52.803Z,2.65
2023-04-15T11:07:37.836Z,2.30
2023-04-15T11:10:26.260Z,2.90
2023-04-15T11:12:58.755Z,2.42
2023-04-15T11:15:30.255Z,2.20
2023-04-15T11:17:59.139Z,3.00
2023-04-15T11:20:27.488Z,2.58
2023-04-15T11:23:08.099Z,3.00
2023-04-15T11:25:44.309Z,2.50
2023-04-15T11:28:14.430Z,2.50
2023-04-15T11:30:43.558Z,2.38
2023-04-15T11:33:13.979Z,2.40
2023-04-15T11:35:42.649Z,2.58
2023-04-15T11:38:12.181Z,1.98
2023-04-15T11:40:40.935Z,2.25
2023-04-15T11:43:09.799Z,2.95
2023-04-15T11:45:49.685Z,2.58
2023-04-15T11:48:17.624Z,2.38
2023-04-15T11:50:45.589Z,2.08
2023-04-15T11:53:14.845Z,2.38
2023-04-15T11:55:45.089Z,2.20
2023-04-15T11:58:16.350Z,2.50
2023-04-15T12:00:49.882Z,2.65
2023-04-15T12:03:26.603Z,2.80
2023-04-15T12:06:09.110Z,2.97
2023-04-15T12:09:02.794Z,2.22
2023-04-15T12:11:38.728Z,3.13
2023-04-15T12:14:09.414Z,2.47
2023-04-15T12:16:46.680Z,2.30
2023-04-15T12:19:23.292Z,2.85
2023-04-15T12:21:51.444Z,3.05
2023-04-15T12:24:22.695Z,2.85
2023-04-15T12:26:52.826Z,3.10
2023-04-15T12:29:21.455Z,2.95
2023-04-15T12:31:52.982Z,3.40
2023-04-15T12:34:27.863Z,4.10
2023-04-15T12:36:56.478Z,3.90
2023-04-15T12:39:25.327Z,3.85
2023-04-15T12:41:53.120Z,4.28
2023-04-15T12:44:22.085Z,4.38
2023-04-15T12:46:52.563Z,3.60
2023-04-15T12:49:20.953Z,4.03
2023-04-15T12:51:49.958Z,4.22
2023-04-15T12:54:17.947Z,4.00
2023-04-15T12:56:46.064Z,4.25
2023-04-15T12:59:14.050Z,4.80
2023-04-15T13:01:42.055Z,4.72
2023-04-15T13:04:12.315Z,4.20
2023-04-15T13:06:40.266Z,4.32
2023-04-15T13:09:08.167Z,4.65
2023-04-15T13:11:36.500Z,5.03
2023-04-15T13:14:06.826Z,4.75
2023-04-15T13:16:35.568Z,5.45
2023-04-15T13:19:05.420Z,4.93
2023-04-15T13:21:35.944Z,5.82
2023-04-15T13:24:04.929Z,5.43
2023-04-15T13:26:33.106Z,5.78
2023-04-15T13:29:00.902Z,5.35
2023-04-15T13:31:28.825Z,6.03
2023-04-15T13:33:57.911Z,6.97
2023-04-15T13:36:26.363Z,6.35
2023-04-15T13:38:55.726Z,6.35
2023-04-15T13:41:23.496Z,6.07
2023-04-15T13:43:51.219Z,6.15
2023-04-15T13:46:19.158Z,6.68
2023-04-15T13:48:46.996Z,6.80
2023-04-15T13:51:14.759Z,5.88
2023-04-15T13:53:42.526Z,6.70
2023-04-15T13:56:11.785Z,6.72
2023-04-15T13:58:39.760Z,6.75
2023-04-15T14:01:07.786Z,6.40
2023-04-15T14:03:36.603Z,6.60
2023-04-15T14:06:05.536Z,6.82
2023-04-15T14:08:33.311Z,7.50
2023-04-15T14:11:01.109Z,7.15
2023-04-15T14:13:30.394Z,6.72
2023-04-15T14:15:58.301Z,7.50
2023-04-15T14:18:26.312Z,7.80
2023-04-15T14:20:54.497Z,7.55
2023-04-15T14:23:22.380Z,7.57
2023-04-15T14:25:51.930Z,10.07
2023-04-15T14:28:19.669Z,7.63
2023-04-15T14:30:48.846Z,11.07
2023-04-15T14:33:16.923Z,9.77
2023-04-15T14:35:44.746Z,8.55
2023-04-15T14:38:12.523Z,8.82
2023-04-15T14:40:40.279Z,7.45
2023-04-15T14:43:08.104Z,6.57
2023-04-15T14:45:36.317Z,6.82
2023-04-15T14:48:06.483Z,6.32
2023-04-15T14:50:34.480Z,6.57
2023-04-15T14:53:02.520Z,6.57
2023-04-15T14:55:30.284Z,6.82
2023-04-15T14:57:58.010Z,6.78
2023-04-15T15:00:25.717Z,5.38
2023-04-15T15:02:54.412Z,6.82
2023-04-15T15:05:23.792Z,7.10
2023-04-15T15:07:51.620Z,6.88
2023-04-15T15:10:35.377Z,6.45
2023-04-15T15:13:09.877Z,6.13
2023-04-15T15:15:39.206Z,6.75
2023-04-15T15:18:07.289Z,7.50
2023-04-15T15:20:36.459Z,7.90
2023-04-15T15:23:04.300Z,8.52
2023-04-15T15:25:32.177Z,7.82
2023-04-15T15:28:00.033Z,6.60
2023-04-15T15:30:27.831Z,7.28
2023-04-15T15:32:55.648Z,8.00
2023-04-15T15:35:23.683Z,7.45
2023-04-15T15:37:53.618Z,7.63
2023-04-15T15:40:21.517Z,9.02
2023-04-15T15:42:50.760Z,9.07
2023-04-15T15:45:18.698Z,10.10
2023-04-15T15:47:46.589Z,8.95
2023-04-15T15:50:15.427Z,11.13
2023-04-15T15:52:43.224Z,12.43
2023-04-15T15:55:12.478Z,10.73
2023-04-15T15:57:40.247Z,11.40
2023-04-15T16:00:11.741Z,13.38
2023-04-15T16:05:28.621Z,13.77
2023-04-15T16:07:56.416Z,12.77
2023-04-15T16:10:25.659Z,15.68
2023-04-15T16:12:53.630Z,15.68
2023-04-15T16:15:21.469Z,15.30
2023-04-15T16:17:49.266Z,15.02
2023-04-15T16:20:17.330Z,13.55
2023-04-15T16:22:45.232Z,15.65
2023-04-15T16:25:13.130Z,13.70
2023-04-15T16:27:57.126Z,14.23
2023-04-15T16:30:27.054Z,13.77
2023-04-15T16:32:54.891Z,12.98
2023-04-15T16:35:22.663Z,15.23
2023-04-15T16:37:50.538Z,14.15
2023-04-15T16:40:18.487Z,14.40
2023-04-15T16:42:47.730Z,15.23
2023-04-15T16:45:15.819Z,14.40
2023-04-15T16:47:44.023Z,15.98
2023-04-15T16:50:12.366Z,15.48
2023-04-15T16:52:40.198Z,15.80
2023-04-15T16:55:08.270Z,16.20
2023-04-15T16:58:00.645Z,12.75
2023-04-15T17:00:25.223Z,13.50
2023-04-15T17:02:53.161Z,16.35
2023-04-15T17:05:21.060Z,15.45
2023-04-15T17:07:48.886Z,18.48
2023-04-15T17:10:16.946Z,19.08
2023-04-15T17:12:44.716Z,17.10
2023-04-15T17:15:12.553Z,15.02
2023-04-15T17:17:41.943Z,17.10
2023-04-15T17:20:10.604Z,16.10
2023-04-15T17:22:38.439Z,19.00
2023-04-15T17:25:07.361Z,18.92
2023-04-15T17:27:35.208Z,18.00
2023-04-15T17:30:03.045Z,19.55
2023-04-15T17:32:34.241Z,17.73
2023-04-15T17:35:06.299Z,16.88
2023-04-15T17:37:34.288Z,15.75
2023-04-15T17:40:02.351Z,19.90
2023-04-15T17:42:30.172Z,18.83
2023-04-15T17:44:57.944Z,17.92
2023-04-15T17:47:25.796Z,20.55
2023-04-15T17:49:53.561Z,20.30
2023-04-15T17:52:22.707Z,16.52
2023-04-15T17:54:50.682Z,20.30
2023-04-15T17:57:18.450Z,18.40
2023-04-15T17:59:47.721Z,19.27
2023-04-15T18:02:16.206Z,21.50
2023-04-15T18:04:44.125Z,19.67
2023-04-15T18:07:12.123Z,20.02
2023-04-15T18:09:41.564Z,18.70
2023-04-15T18:12:09.437Z,19.48
2023-04-15T18:14:37.737Z,18.13
2023-04-15T18:17:05.934Z,20.77
2023-04-15T18:19:33.711Z,18.20
2023-04-15T18:22:01.467Z,20.15
2023-04-15T18:24:29.483Z,23.55
2023-04-15T18:26:59.014Z,19.10
2023-04-15T18:29:26.840Z,19.40
2023-04-15T18:31:54.663Z,21.90
2023-04-15T18:34:22.533Z,21.42
2023-04-15T18:36:50.418Z,20.05
2023-04-15T18:39:18.367Z,18.60
2023-04-15T18:41:46.152Z,20.40
2023-04-15T18:44:15.442Z,19.42
2023-04-15T18:46:43.308Z,19.02
2023-04-15T18:49:11.209Z,20.33
2023-04-15T18:51:39.274Z,18.38
2023-04-15T18:54:07.083Z,21.58
2023-04-15T18:56:34.850Z,21.58
2023-04-15T18:59:25.337Z,19.83
2023-04-15T19:01:52.245Z,16.70
2023-04-15T19:04:20.395Z,18.95
2023-04-15T19:06:48.560Z,17.27
2023-04-15T19:09:16.897Z,16.55
2023-04-15T19:11:44.676Z,17.25
2023-04-15T19:14:12.478Z,20.77
2023-04-15T19:16:40.322Z,20.30
2023-04-15T19:19:09.514Z,17.35
2023-04-15T19:21:37.509Z,19.33
2023-04-15T19:24:05.465Z,19.52
2023-04-15T19:26:33.376Z,20.70
2023-04-15T19:29:01.207Z,19.98
2023-04-15T19:31:28.993Z,22.63
2023-04-15T19:33:56.753Z,20.38
2023-04-15T19:36:26.610Z,19.30
2023-04-15T19:38:54.459Z,18.75
2023-04-15T19:41:22.211Z,19.00
2023-04-15T19:43:49.958Z,19.42
2023-04-15T19:46:17.816Z,19.15
2023-04-15T19:48:45.740Z,17.85
2023-04-15T19:51:13.517Z,18.80
2023-04-15T19:53:42.750Z,17.92
2023-04-15T19:56:10.956Z,17.48
2023-04-15T19:58:38.809Z,15.60
2023-04-15T20:01:06.630Z,15.25
2023-04-15T20:03:34.573Z,15.98
2023-04-15T20:06:02.466Z,15.50
2023-04-15T20:08:30.229Z,16.10
2023-04-15T20:11:01.076Z,15.25
2023-04-15T20:13:28.892Z,16.42
2023-04-15T20:15:56.623Z,17.23
2023-04-15T20:18:24.431Z,17.33
2023-04-15T20:20:52.283Z,18.20
2023-04-15T20:23:20.033Z,17.67
2023-04-15T20:25:47.818Z,19.17
2023-04-15T20:28:18.056Z,17.52
2023-04-15T20:30:45.878Z,17.55
2023-04-15T20:33:13.774Z,17.00
2023-04-15T20:35:41.767Z,17.35
2023-04-15T20:38:10.514Z,16.63
2023-04-15T20:40:39.477Z,17.13
2023-04-15T20:43:08.344Z,16.05
2023-04-15T20:45:37.611Z,16.55
2023-04-15T20:48:06.348Z,15.40
2023-04-15T20:50:34.147Z,16.92
2023-04-15T20:53:01.972Z,19.92
2023-04-15T20:55:30.782Z,21.23
2023-04-15T20:57:59.000Z,20.67
2023-04-15T21:00:26.824Z,22.33
2023-04-15T21:02:56.255Z,19.17
2023-04-15T21:05:24.173Z,18.77
2023-04-15T21:07:51.976Z,19.60
2023-04-15T21:10:19.948Z,21.05
2023-04-15T21:12:47.707Z,21.83
2023-04-15T21:15:15.490Z,21.45
2023-04-15T21:17:43.328Z,22.05
2023-04-15T21:20:13.534Z,18.63
2023-04-15T21:22:41.341Z,20.20
2023-04-15T21:25:10.151Z,21.58
2023-04-15T21:27:37.950Z,19.88
2023-04-15T21:30:06.690Z,21.05
2023-04-15T21:32:34.508Z,18.13
2023-04-15T21:35:02.291Z,21.42
2023-04-15T21:37:31.713Z,21.10
2023-04-15T21:39:59.516Z,19.05
2023-04-15T21:42:27.330Z,17.45
2023-04-15T21:44:55.068Z,17.80
2023-04-15T21:47:22.847Z,19.83
2023-04-15T21:49:51.846Z,18.80
2023-04-15T21:52:19.661Z,19.80
2023-04-15T21:54:48.825Z,19.52
2023-04-15T21:57:16.682Z,20.30
2023-04-15T21:59:44.450Z,19.70
2023-04-15T22:06:36.062Z,21.63
2023-04-15T22:09:03.853Z,20.05
2023-04-15T22:11:32.274Z,19.10
2023-04-15T22:14:00.648Z,17.75
2023-04-15T22:16:28.658Z,20.60
2023-04-15T22:18:56.631Z,21.63
2023-04-15T22:21:24.498Z,22.70
2023-04-15T22:24:38.699Z,21.98
2023-04-15T22:26:42.347Z,25.25
2023-04-15T22:29:10.623Z,24.52
2023-04-15T22:31:38.420Z,23.58
2023-04-15T22:34:06.226Z,19.88
2023-04-15T22:36:34.124Z,23.15
2023-04-15T22:39:03.471Z,24.58
2023-04-15T22:41:31.575Z,25.75
2023-04-15T22:43:59.323Z,24.42
2023-04-15T22:46:27.156Z,22.67
2023-04-15T22:48:55.103Z,22.40
2023-04-15T22:51:23.513Z,23.65
2023-04-15T22:53:51.421Z,24.08
2023-04-15T22:56:21.484Z,24.77
2023-04-15T22:58:49.885Z,24.23
2023-04-15T23:01:17.967Z,25.15
2023-04-15T23:03:56.983Z,24.85
2023-04-15T23:06:31.832Z,25.42
2023-04-15T23:08:59.643Z,24.75
2023-04-15T23:11:28.797Z,25.52
2023-04-15T23:13:56.582Z,24.20
2023-04-15T23:16:24.429Z,23.52
2023-04-15T23:18:52.240Z,26.52
2023-04-15T23:21:19.992Z,25.13
2023-04-15T23:23:47.780Z,23.85
2023-04-15T23:26:15.587Z,21.40
2023-04-15T23:28:44.715Z,24.42
2023-04-15T23:31:12.543Z,24.75
2023-04-15T23:33:40.464Z,23.85
2023-04-15T23:36:08.591Z,23.08
2023-04-15T23:38:36.384Z,23.30
2023-04-15T23:41:04.187Z,24.23
2023-04-15T23:43:31.973Z,22.77
2023-04-15T23:46:01.093Z,22.65
2023-04-15T23:48:30.103Z,23.00
2023-04-15T23:50:57.990Z,22.98
2023-04-15T23:53:25.776Z,22.90
2023-04-15T23:55:53.558Z,23.13
2023-04-15T23:58:21.299Z,22.80
